Mans de Montecasino Ii, Puerto Rico
Current Conditions -  °F | °C
As of 6:56 PM on Sunday 21 Dec 2014 (Local Time) from TJSJ Reporting Station
Scattered Clouds Scattered Clouds  
Wind Chill: 78°   Ceiling: Unl
Heat Index: 80°   Visibility: 10mi
Dew Point: 67°   Wind: 9mph
Humidity: 68%   Direction: 70°ENE
Pressure: 30.04"   Gusts: NA
Location:  18.3893°N, 66.2481°W
Report Text: TJSJ 212256Z 07008KT 10SM FEW024 SCT050 26/19 A3004 RMK AO2 SLP171 T02560194
Loading
Personal Weather Stations






























Interactive Weather Map New forecast layout! Learn more

10-Day Weather Forecast

Advertisements
Track Severe Weather on mobile